• Join FlightAware (Why Join?)
  • Login
  • US Flag 
05:12AM EDT


 

Airport Tracker/Info


-or-


 

Live Flight TrackerFlight Track Log ✈ XOJ549 ✈ 05-May-2013 ✈ KSNA - KEGE

Flight Track Log - Related Links

Times and Time Zones

All times are in EDT time to prevent confusion due to time zone crossing. See the XOJ549 flight status page for this flight to view local times or setup timezone preferences in your user account.

Time Position Orientation Groundspeed Altitude Reporting Facility
EDT Latitude Longitude Course Direction KTS MPH feet Rate Location/Type
04:50PM 33.5775 -117.9128 195° South 209 241 6,400  Level Los Angeles Center
04:51PM 33.5417 -117.9911 241° Southwest 270 311 10,300 3,600 Climbing Los Angeles Center
04:52PM 33.6069 -118.0553 321° Northwest 319 367 14,000 3,300 Climbing Los Angeles Center
04:53PM 33.7089 -118.0556 360° North 367 422 17,200 3,240 Climbing Los Angeles Center
04:54PM 33.8122 -118.0283 12° North 400 460 20,800 3,240 Climbing Los Angeles Center
04:55PM 33.9203 -117.9308 37° Northeast 407 468 23,900 2,820 Climbing Los Angeles Center
04:56PM 34.0150 -117.8469 36° Northeast 421 484 26,700 2,460 Climbing Los Angeles Center
04:57PM 34.1053 -117.7536 41° Northeast 428 493 29,100 2,220 Climbing Los Angeles Center
04:58PM 34.1836 -117.6456 49° Northeast 430 495 31,400 1,980 Climbing Los Angeles Center
04:59PM 34.2658 -117.5356 48° Northeast 439 505 33,300 1,560 Climbing Los Angeles Center
05:00PM 34.3689 -117.3964 48° Northeast 462 532 34,700 1,260 Climbing Los Angeles Center
05:01PM 34.4603 -117.2700 49° Northeast 481 554 36,000 1,020 Climbing Los Angeles Center
05:02PM 34.5325 -117.1717 48° Northeast 490 564 36,900 1,080 Climbing Los Angeles Center
05:03PM 34.6417 -117.0211 49° Northeast 498 573 38,300 960 Climbing Los Angeles Center
05:04PM 34.7328 -116.8947 49° Northeast 499 574 39,000 300 Climbing Los Angeles Center
05:05PM 34.8239 -116.7689 49° Northeast 499 574 39,000 60 Level Los Angeles Center
05:06PM 34.9322 -116.6161 49° Northeast 499 574 39,200 660 Climbing Los Angeles Center
05:07PM 35.0261 -116.4928 47° Northeast 500 575 40,400 840 Climbing Los Angeles Center
05:08PM 35.1225 -116.3750 45° Northeast 495 570 41,000 240 Climbing Los Angeles Center
05:09PM 35.2203 -116.2550 45° Northeast 495 570 41,000  Level Los Angeles Center
05:10PM 35.3161 -116.1328 46° Northeast 498 573 41,000  Level Los Angeles Center
05:12PM 35.4522 -115.9594 46° Northeast 503 579 41,000  Level Los Angeles Center
05:13PM 35.5417 -115.8489 45° Northeast 503 579 41,000  Level Los Angeles Center
05:14PM 35.6583 -115.7022 46° Northeast 500 575 41,000  Level Los Angeles Center
05:15PM 35.7544 -115.5775 46° Northeast 503 579 41,000  Level Los Angeles Center
05:16PM 35.8508 -115.4547 46° Northeast 502 578 41,000  Level Los Angeles Center
05:17PM 35.9464 -115.3319 46° Northeast 500 575 41,000  Level Los Angeles Center
05:18PM 36.0586 -115.1850 47° Northeast 494 568 41,000  Level Los Angeles Center
05:19PM 36.1942 -115.0144 45° Northeast 501 577 41,000  Level Los Angeles Center
05:20PM 36.2908 -114.8922 46° Northeast 501 577 41,000  Level Los Angeles Center
05:21PM 36.3867 -114.7694 46° Northeast 499 574 41,000  Level Los Angeles Center
05:22PM 36.4822 -114.6442 46° Northeast 501 577 41,000  Level Los Angeles Center
05:23PM 36.5769 -114.5192 47° Northeast 499 574 41,000  Level Los Angeles Center
05:24PM 36.6922 -114.3694 46° Northeast 500 575 41,000  Level Los Angeles Center
05:25PM 36.7808 -114.2358 50° Northeast 499 574 41,000  Level Los Angeles Center
05:26PM 36.8514 -114.0878 59° Northeast 497 572 41,000  Level Los Angeles Center
05:27PM 36.9225 -113.9400 59° Northeast 498 573 41,000  Level Los Angeles Center
05:28PM 36.9994 -113.7822 59° Northeast 498 573 41,000  Level Los Angeles Center
05:30PM 37.0694 -113.6339 59° Northeast 497 572 41,000  Level Los Angeles Center
05:31PM 37.1397 -113.4853 59° Northeast 497 572 41,000  Level Los Angeles Center
05:31PM 37.1956 -113.3678 59° Northeast 497 572 41,000  Level Salt Lake Center
05:32PM 37.2650 -113.2194 59° Northeast 496 571 41,000  Level Salt Lake Center
05:33PM 37.3347 -113.0703 60° Northeast 498 573 41,000  Level Salt Lake Center
05:34PM 37.4169 -112.8919 60° Northeast 498 573 41,000  Level Salt Lake Center
05:35PM 37.4861 -112.7461 59° Northeast 499 574 41,000  Level Salt Lake Center
05:36PM 37.5544 -112.5994 60° Northeast 498 573 41,000  Level Salt Lake Center
05:37PM 37.6231 -112.4514 60° Northeast 496 571 41,000  Level Salt Lake Center
05:39PM 37.7056 -112.2725 60° Northeast 495 570 41,000  Level Salt Lake Center
05:40PM 37.7744 -112.1231 60° Northeast 494 568 41,000  Level Salt Lake Center
05:41PM 37.8439 -111.9728 60° Northeast 496 571 41,000  Level Salt Lake Center
05:42PM 37.9133 -111.8231 60° Northeast 495 570 41,000  Level Salt Lake Center
05:43PM 37.9828 -111.6736 59° Northeast 495 570 41,000  Level Salt Lake Center
05:44PM 38.0508 -111.5217 60° Northeast 495 570 41,000  Level Salt Lake Center
05:45PM 38.1194 -111.3722 60° Northeast 492 566 41,000  Level Salt Lake Center
05:46PM 38.2019 -111.1897 60° Northeast 498 573 41,000  Level Salt Lake Center
05:47PM 38.2694 -111.0392 60° Northeast 493 567 41,000  Level Salt Lake Center
05:48PM 38.3314 -110.8986 61° Northeast 492 566 41,000  Level Salt Lake Center
05:49PM 38.3936 -110.7511 62° Northeast 493 567 41,000  Level Denver Center
05:50PM 38.4594 -110.5758 64° Northeast 492 566 41,000  Level Denver Center
05:51PM 38.5128 -110.4231 66° East 494 568 41,000  Level Denver Center
05:52PM 38.5747 -110.2450 66° East 491 565 41,000  Level Denver Center
05:53PM 38.6361 -110.0692 66° East 489 563 41,000  Level Salt Lake Center
05:54PM 38.6878 -109.9167 66° East 488 562 41,000  Level Salt Lake Center
05:55PM 38.7378 -109.7617 67° East 491 565 41,000  Level Denver Center
05:56PM 38.7897 -109.6089 66° East 489 563 41,000  Level Denver Center
05:57PM 38.8489 -109.4278 67° East 490 564 41,000  Level Denver Center
05:58PM 38.9000 -109.2739 67° East 491 565 41,000  Level Denver Center
05:59PM 38.9603 -109.0931 67° East 494 568 41,000  Level Denver Center
06:00PM 39.0114 -108.9400 67° East 491 565 41,000  Level Denver Center
06:01PM 39.0725 -108.7617 66° East 490 564 41,000 -300 Level Denver Center
06:02PM 39.1381 -108.6164 60° Northeast 493 567 40,500 -1,200 Descending Denver Center
06:03PM 39.2139 -108.4464 60° Northeast 493 567 38,600 -1,740 Descending Denver Center
06:04PM 39.2803 -108.3053 59° Northeast 481 554 37,000 -1,440 Descending Denver Center
06:05PM 39.3422 -108.1914 55° Northeast 485 558 35,700 -1,320 Descending Denver Center
06:06PM 39.4392 -108.0092 55° Northeast 482 555 34,400 -1,200 Descending Denver Center
06:07PM 39.5233 -107.8469 56° Northeast 487 560 33,300 -1,260 Descending Denver Center
06:08PM 39.5981 -107.7031 56° Northeast 499 574 31,900 -1,500 Descending Denver Center
06:09PM 39.6869 -107.5347 46° Northeast 506 582 30,200 -1,500 Descending Denver Center
06:10PM 39.6828 -107.5285 46° Northeast  Level FlightAware Approximate
06:10PM 39.7611 -107.3911 56° Northeast 502 578 28,800  Level Denver Center
06:11PM 39.8333 -107.2522 56° Northeast 488 562 27,300 -1,500 Descending Denver Center
06:12PM 39.9028 -107.1158 56° Northeast 461 531 25,800 -1,620 Descending Denver Center
06:13PM 39.9156 -106.9661 84° East 429 494 24,000 -2,400 Descending Denver Center
06:14PM 39.8797 -106.8317 109° East 396 456 20,900 -3,300 Descending Denver Center
06:15PM 39.8350 -106.6869 112° Southeast 362 417 17,200 -3,300 Descending Denver Center
06:17PM 39.7958 -106.5742 114° Southeast 350 403 14,200 -1,800 Descending Denver Center
06:18PM 39.7214 -106.5597 172° South 293 337 13,600 -1,200 Descending Denver Center
06:19PM 39.6842 -106.6319 236° Southwest 252 290 11,800 -1,800 Descending Denver Center
06:20PM 39.6717 -106.7169 259° West 242 278 9,900 -1,620 Descending Denver Center
06:21PM 39.6608 -106.7881 259° West 206 237 8,500 -1,200 Descending Denver Center
06:22PM 39.6500 -106.8450 256° West 176 203 7,500 -960 Descending Denver Center
06:23PM 39.6439 -106.8944 261° West 156 180 6,600 -900 Descending Denver Center